createdAt,value
2018-07-19T00:00:31.732Z,3.67
2018-07-19T00:03:01.028Z,4.27
2018-07-19T00:05:30.319Z,4.00
2018-07-19T00:07:59.297Z,4.03
2018-07-19T00:10:28.027Z,4.00
2018-07-19T00:12:57.069Z,4.33
2018-07-19T00:15:26.331Z,3.30
2018-07-19T00:17:55.639Z,4.10
2018-07-19T00:20:24.983Z,3.97
2018-07-19T00:22:54.308Z,3.73
2018-07-19T00:25:23.502Z,3.17
2018-07-19T00:27:52.568Z,3.63
2018-07-19T00:30:21.823Z,4.10
2018-07-19T00:32:51.088Z,3.97
2018-07-19T00:35:20.151Z,3.97
2018-07-19T00:37:49.151Z,3.67
2018-07-19T00:40:18.186Z,4.00
2018-07-19T00:42:47.337Z,3.63
2018-07-19T00:45:16.457Z,4.30
2018-07-19T00:47:45.803Z,3.90
2018-07-19T00:50:15.040Z,4.00
2018-07-19T00:52:44.309Z,4.10
2018-07-19T00:55:13.400Z,3.73
2018-07-19T00:57:42.602Z,3.80
2018-07-19T01:00:11.936Z,4.13
2018-07-19T01:02:41.728Z,3.93
2018-07-19T01:05:11.743Z,4.53
2018-07-19T01:07:42.154Z,3.90
2018-07-19T01:10:11.587Z,3.90
2018-07-19T01:12:41.291Z,4.40
2018-07-19T01:15:11.511Z,4.20
2018-07-19T01:17:40.892Z,4.03
2018-07-19T01:20:10.413Z,4.87
2018-07-19T01:22:44.873Z,4.50
2018-07-19T01:25:14.916Z,4.60
2018-07-19T01:27:44.518Z,4.10
2018-07-19T01:30:13.773Z,4.30
2018-07-19T01:32:43.890Z,4.30
2018-07-19T01:35:13.954Z,4.57
2018-07-19T01:37:44.312Z,4.07
2018-07-19T01:40:13.846Z,4.40
2018-07-19T01:42:44.937Z,4.43
2018-07-19T01:45:14.846Z,4.23
2018-07-19T01:47:45.229Z,4.37
2018-07-19T01:50:14.445Z,3.60
2018-07-19T01:52:44.080Z,4.07
2018-07-19T01:55:13.323Z,3.77
2018-07-19T01:57:42.745Z,3.87
2018-07-19T02:00:12.256Z,4.17
2018-07-19T02:02:42.083Z,3.73
2018-07-19T02:05:11.579Z,3.93
2018-07-19T02:07:41.069Z,3.80
2018-07-19T02:10:10.314Z,4.27
2018-07-19T02:12:39.560Z,3.80
2018-07-19T02:15:08.485Z,4.63
2018-07-19T02:17:37.491Z,5.03
2018-07-19T02:20:06.834Z,4.47
2018-07-19T02:22:36.062Z,4.97
2018-07-19T02:25:05.197Z,5.20
2018-07-19T02:27:34.723Z,5.10
2018-07-19T02:30:04.032Z,5.33
2018-07-19T02:32:33.149Z,4.40
2018-07-19T02:35:02.420Z,3.97
2018-07-19T02:37:31.234Z,3.80
2018-07-19T02:40:00.260Z,3.97
2018-07-19T02:42:29.569Z,4.80
2018-07-19T02:44:58.367Z,4.70
2018-07-19T02:47:27.461Z,4.90
2018-07-19T02:49:56.671Z,4.67
2018-07-19T02:52:25.807Z,5.10
2018-07-19T02:54:54.763Z,4.77
2018-07-19T02:57:23.634Z,5.70
2018-07-19T02:59:52.646Z,4.50
2018-07-19T03:02:21.714Z,5.20
2018-07-19T03:04:50.838Z,5.47
2018-07-19T03:07:19.820Z,5.33
2018-07-19T03:09:48.982Z,5.63
2018-07-19T03:12:17.842Z,4.90
2018-07-19T03:14:46.954Z,5.03
2018-07-19T03:17:15.737Z,5.77
2018-07-19T03:19:44.583Z,5.60
2018-07-19T03:22:13.682Z,5.07
2018-07-19T03:24:42.723Z,5.40
2018-07-19T03:27:11.753Z,6.03
2018-07-19T03:29:40.769Z,5.47
2018-07-19T03:32:10.257Z,5.50
2018-07-19T03:34:39.256Z,4.97
2018-07-19T03:37:08.210Z,5.03
2018-07-19T03:39:37.311Z,5.97
2018-07-19T03:42:06.403Z,4.97
2018-07-19T03:44:35.221Z,5.00
2018-07-19T03:47:03.876Z,3.90
2018-07-19T03:49:32.807Z,4.60
2018-07-19T03:52:01.893Z,5.60
2018-07-19T03:54:30.980Z,4.87
2018-07-19T03:57:00.401Z,4.20
2018-07-19T03:59:29.220Z,5.27
2018-07-19T04:01:58.303Z,5.00
2018-07-19T04:04:27.434Z,5.00
2018-07-19T04:06:56.461Z,4.53
2018-07-19T04:09:25.522Z,4.47
2018-07-19T04:11:54.561Z,5.00
2018-07-19T04:14:23.709Z,4.60
2018-07-19T04:16:52.884Z,3.73
2018-07-19T04:19:22.198Z,3.00
2018-07-19T04:21:51.301Z,3.67
2018-07-19T04:24:20.434Z,3.23
2018-07-19T04:26:49.744Z,3.00
2018-07-19T04:29:19.472Z,2.93
2018-07-19T04:31:48.489Z,3.70
2018-07-19T04:34:17.785Z,4.07
2018-07-19T04:36:46.786Z,4.23
2018-07-19T04:39:15.936Z,3.73
2018-07-19T04:41:45.221Z,4.17
2018-07-19T04:44:14.711Z,4.57
2018-07-19T04:46:44.266Z,3.80
2018-07-19T04:49:13.606Z,4.30
2018-07-19T04:51:42.760Z,4.10
2018-07-19T04:54:12.038Z,4.53
2018-07-19T04:56:41.335Z,4.10
2018-07-19T04:59:10.540Z,4.30
2018-07-19T05:01:39.691Z,4.40
2018-07-19T05:04:09.088Z,4.20
2018-07-19T05:06:38.350Z,5.17
2018-07-19T05:09:08.657Z,4.03
2018-07-19T05:11:38.135Z,4.03
2018-07-19T05:14:07.147Z,4.00
2018-07-19T05:16:36.684Z,3.67
2018-07-19T05:19:05.816Z,3.10
2018-07-19T05:21:35.380Z,3.40
2018-07-19T05:24:04.702Z,3.30
2018-07-19T05:26:33.954Z,3.20
2018-07-19T05:29:03.417Z,3.40
2018-07-19T05:31:32.618Z,3.37
2018-07-19T05:34:01.700Z,3.40
2018-07-19T05:36:31.002Z,3.40
2018-07-19T05:39:00.110Z,3.60
2018-07-19T05:41:29.359Z,3.20
2018-07-19T05:43:58.513Z,2.43
2018-07-19T05:46:27.687Z,3.20
2018-07-19T05:48:56.902Z,2.57
2018-07-19T05:51:26.110Z,2.90
2018-07-19T05:53:55.274Z,2.60
2018-07-19T05:56:24.814Z,3.37
2018-07-19T05:58:54.036Z,2.80
2018-07-19T06:01:24.153Z,2.13
2018-07-19T06:03:53.572Z,2.43
2018-07-19T06:06:23.025Z,2.58
2018-07-19T06:08:52.136Z,2.50
2018-07-19T06:11:21.215Z,2.50
2018-07-19T06:13:50.178Z,2.15
2018-07-19T06:16:19.738Z,2.50
2018-07-19T06:18:48.949Z,2.70
2018-07-19T06:21:18.331Z,2.75
2018-07-19T06:23:47.121Z,2.00
2018-07-19T06:26:16.162Z,1.82
2018-07-19T06:28:45.038Z,2.40
2018-07-19T06:31:14.190Z,2.70
2018-07-19T06:33:43.417Z,2.60
2018-07-19T06:36:12.239Z,2.45
2018-07-19T06:38:40.932Z,2.83
2018-07-19T06:41:10.226Z,2.12
2018-07-19T06:43:39.033Z,2.65
2018-07-19T06:46:08.442Z,2.15
2018-07-19T06:48:37.597Z,1.92
2018-07-19T06:51:07.024Z,2.00
2018-07-19T06:53:36.307Z,2.35
2018-07-19T06:56:05.738Z,2.30
2018-07-19T06:58:34.750Z,2.00
2018-07-19T07:01:04.009Z,3.10
2018-07-19T07:03:33.284Z,2.10
2018-07-19T07:06:02.518Z,2.45
2018-07-19T07:08:31.884Z,2.62
2018-07-19T07:11:01.138Z,1.98
2018-07-19T07:13:30.229Z,2.02
2018-07-19T07:15:59.369Z,2.20
2018-07-19T07:18:29.604Z,1.87
2018-07-19T07:20:59.020Z,2.40
2018-07-19T07:23:29.439Z,1.90
2018-07-19T07:25:58.779Z,1.98
2018-07-19T07:28:28.134Z,2.37
2018-07-19T07:30:57.253Z,2.10
2018-07-19T07:33:26.505Z,2.20
2018-07-19T07:35:55.832Z,2.00
2018-07-19T07:38:24.738Z,2.05
2018-07-19T07:40:53.797Z,2.05
2018-07-19T07:43:23.403Z,1.87
2018-07-19T07:45:52.509Z,1.80
2018-07-19T07:48:21.618Z,2.00
2018-07-19T07:50:50.966Z,2.22
2018-07-19T07:53:20.059Z,1.80
2018-07-19T07:55:49.367Z,2.12
2018-07-19T07:58:18.738Z,1.90
2018-07-19T08:00:47.933Z,1.77
2018-07-19T08:03:17.035Z,1.95
2018-07-19T08:05:46.130Z,1.70
2018-07-19T08:08:15.339Z,2.10
2018-07-19T08:10:44.719Z,1.98
2018-07-19T08:13:13.738Z,1.90
2018-07-19T08:15:42.803Z,2.02
2018-07-19T08:18:12.234Z,1.87
2018-07-19T08:20:41.539Z,1.90
2018-07-19T08:23:10.708Z,2.08
2018-07-19T08:25:39.982Z,1.80
2018-07-19T08:28:09.200Z,1.70
2018-07-19T08:30:38.039Z,2.35
2018-07-19T08:33:07.236Z,1.70
2018-07-19T08:35:36.581Z,2.10
2018-07-19T08:38:06.340Z,2.10
2018-07-19T08:40:35.612Z,2.20
2018-07-19T08:43:04.774Z,2.05
2018-07-19T08:45:34.124Z,2.22
2018-07-19T08:48:03.368Z,2.12
2018-07-19T08:50:32.718Z,2.02
2018-07-19T08:53:02.003Z,1.95
2018-07-19T08:55:31.314Z,1.80
2018-07-19T08:58:00.577Z,1.60
2018-07-19T09:00:29.863Z,1.95
2018-07-19T09:02:59.189Z,1.90
2018-07-19T09:05:28.262Z,2.08
2018-07-19T09:07:57.428Z,1.80
2018-07-19T09:10:26.395Z,2.08
2018-07-19T09:12:55.556Z,2.20
2018-07-19T09:15:24.936Z,1.90
2018-07-19T09:17:54.116Z,2.70
2018-07-19T09:20:23.147Z,2.15
2018-07-19T09:22:52.173Z,1.90
2018-07-19T09:25:21.502Z,1.85
2018-07-19T09:27:50.437Z,1.70
2018-07-19T09:30:19.867Z,2.12
2018-07-19T09:32:49.128Z,2.22
2018-07-19T09:35:18.078Z,2.40
2018-07-19T09:37:47.057Z,2.20
2018-07-19T09:40:16.114Z,2.27
2018-07-19T09:42:45.158Z,2.12
2018-07-19T09:45:14.089Z,1.95
2018-07-19T09:47:43.213Z,2.30
2018-07-19T09:50:12.530Z,2.47
2018-07-19T09:52:41.336Z,2.67
2018-07-19T09:55:10.247Z,2.52
2018-07-19T09:57:39.260Z,2.52
2018-07-19T10:00:08.339Z,2.47
2018-07-19T10:02:37.478Z,2.20
2018-07-19T10:05:06.569Z,4.75
2018-07-19T10:07:35.942Z,2.20
2018-07-19T10:10:05.331Z,2.27
2018-07-19T10:12:34.622Z,2.22
2018-07-19T10:15:03.823Z,1.87
2018-07-19T10:17:32.994Z,2.20
2018-07-19T10:20:02.225Z,2.15
2018-07-19T10:22:31.527Z,2.27
2018-07-19T10:25:00.806Z,2.22
2018-07-19T10:27:29.553Z,2.20
2018-07-19T10:29:59.486Z,2.40
2018-07-19T10:32:28.493Z,2.50
2018-07-19T10:34:57.507Z,1.90
2018-07-19T10:37:27.533Z,2.02
2018-07-19T10:39:56.766Z,2.42
2018-07-19T10:42:25.974Z,2.47
2018-07-19T10:44:55.028Z,2.50
2018-07-19T10:47:24.129Z,2.05
2018-07-19T10:49:53.479Z,2.25
2018-07-19T10:52:22.237Z,2.25
2018-07-19T10:54:51.169Z,1.85
2018-07-19T10:57:20.427Z,2.47
2018-07-19T10:59:49.558Z,2.08
2018-07-19T11:02:18.839Z,2.70
2018-07-19T11:04:48.088Z,3.15
2018-07-19T11:07:17.526Z,2.58
2018-07-19T11:09:46.961Z,2.33
2018-07-19T11:12:16.154Z,2.50
2018-07-19T11:14:45.405Z,2.80
2018-07-19T11:17:14.596Z,2.22
2018-07-19T11:19:43.744Z,2.50
2018-07-19T11:22:12.824Z,2.10
2018-07-19T11:24:42.044Z,3.58
2018-07-19T11:27:11.023Z,2.47
2018-07-19T11:29:40.117Z,2.83
2018-07-19T11:32:09.429Z,2.40
2018-07-19T11:34:38.865Z,2.12
2018-07-19T11:37:08.145Z,2.08
2018-07-19T11:39:37.495Z,2.02
2018-07-19T11:42:06.395Z,2.20
2018-07-19T11:44:35.411Z,2.40
2018-07-19T11:47:04.909Z,2.12
2018-07-19T11:49:33.728Z,2.40
2018-07-19T11:52:02.734Z,2.25
2018-07-19T11:54:31.912Z,2.65
2018-07-19T11:57:01.073Z,2.67
2018-07-19T11:59:30.353Z,2.30
2018-07-19T12:01:59.624Z,1.80
2018-07-19T12:04:28.907Z,2.02
2018-07-19T12:06:57.896Z,2.27
2018-07-19T12:09:27.175Z,2.52
2018-07-19T12:11:56.295Z,2.40
2018-07-19T12:14:25.429Z,1.80
2018-07-19T12:16:54.666Z,2.17
2018-07-19T12:19:23.991Z,2.00
2018-07-19T12:21:53.644Z,2.40
2018-07-19T12:24:23.066Z,2.30
2018-07-19T12:26:52.715Z,2.17
2018-07-19T12:29:21.756Z,2.08
2018-07-19T12:31:50.867Z,2.70
2018-07-19T12:34:19.770Z,2.60
2018-07-19T12:36:48.757Z,2.20
2018-07-19T12:39:17.932Z,2.55
2018-07-19T12:41:47.062Z,1.92
2018-07-19T12:44:16.409Z,2.20
2018-07-19T12:46:45.686Z,2.37
2018-07-19T12:49:15.103Z,2.22
2018-07-19T12:51:44.498Z,2.47
2018-07-19T12:54:13.842Z,2.22
2018-07-19T12:56:43.106Z,2.27
2018-07-19T12:59:12.288Z,2.42
2018-07-19T13:01:41.517Z,2.30
2018-07-19T13:04:10.412Z,2.22
2018-07-19T13:06:39.611Z,2.15
2018-07-19T13:09:09.604Z,2.10
2018-07-19T13:11:39.576Z,2.17
2018-07-19T13:14:08.495Z,2.37
2018-07-19T13:16:37.499Z,2.47
2018-07-19T13:19:06.642Z,2.10
2018-07-19T13:21:35.959Z,2.35
2018-07-19T13:24:05.256Z,2.22
2018-07-19T13:26:34.448Z,2.30
2018-07-19T13:29:03.694Z,2.30
2018-07-19T13:31:33.015Z,2.40
2018-07-19T13:34:02.239Z,2.00
2018-07-19T13:36:31.662Z,1.85
2018-07-19T13:39:00.832Z,2.10
2018-07-19T13:41:30.079Z,2.12
2018-07-19T13:43:59.454Z,2.05
2018-07-19T13:46:29.128Z,2.10
2018-07-19T13:48:58.519Z,2.12
2018-07-19T13:51:27.809Z,2.30
2018-07-19T13:54:46.033Z,2.52
2018-07-19T13:57:15.568Z,2.10
2018-07-19T13:59:44.713Z,2.20
2018-07-19T14:02:14.272Z,2.70
2018-07-19T14:04:43.425Z,2.65
2018-07-19T14:07:12.728Z,2.70
2018-07-19T14:09:41.904Z,2.25
2018-07-19T14:12:11.272Z,2.58
2018-07-19T14:14:40.488Z,2.25
2018-07-19T14:17:09.731Z,2.70
2018-07-19T14:19:38.585Z,2.17
2018-07-19T14:22:07.278Z,2.60
2018-07-19T14:24:36.026Z,2.30
2018-07-19T14:27:05.474Z,1.90
2018-07-19T14:29:34.457Z,2.85
2018-07-19T14:32:03.331Z,2.20
2018-07-19T14:34:32.507Z,1.80
2018-07-19T14:37:01.857Z,2.22
2018-07-19T14:39:31.067Z,1.70
2018-07-19T14:42:00.258Z,2.50
2018-07-19T14:44:29.376Z,2.50
2018-07-19T14:46:58.642Z,2.42
2018-07-19T14:49:28.036Z,2.12
2018-07-19T14:51:57.140Z,1.98
2018-07-19T14:54:26.261Z,1.72
2018-07-19T14:56:55.486Z,2.40
2018-07-19T14:59:24.657Z,2.10
2018-07-19T15:01:53.798Z,1.80
2018-07-19T15:04:22.974Z,2.45
2018-07-19T15:06:52.206Z,1.92
2018-07-19T15:09:21.574Z,1.92
2018-07-19T15:11:50.732Z,2.15
2018-07-19T15:14:20.151Z,2.20
2018-07-19T15:16:49.301Z,1.70
2018-07-19T15:19:18.323Z,2.15
2018-07-19T15:21:47.198Z,2.30
2018-07-19T15:24:16.075Z,2.20
2018-07-19T15:26:44.753Z,2.42
2018-07-19T15:29:13.761Z,2.47
2018-07-19T15:31:43.863Z,1.90
2018-07-19T15:34:13.042Z,2.40
2018-07-19T15:36:41.935Z,2.37
2018-07-19T15:39:11.237Z,2.35
2018-07-19T15:45:11.368Z,2.55
2018-07-19T15:47:40.321Z,2.52
2018-07-19T15:50:09.562Z,2.08
2018-07-19T15:52:38.862Z,2.20
2018-07-19T15:55:08.066Z,2.05
2018-07-19T15:57:37.229Z,2.50
2018-07-19T16:00:06.278Z,2.40
2018-07-19T16:02:35.178Z,2.33
2018-07-19T16:05:04.637Z,2.30
2018-07-19T16:07:33.870Z,2.37
2018-07-19T16:10:02.868Z,2.50
2018-07-19T16:12:31.991Z,2.42
2018-07-19T16:15:01.228Z,2.42
2018-07-19T16:17:30.622Z,2.50
2018-07-19T16:19:59.577Z,2.80
2018-07-19T16:22:28.782Z,2.17
2018-07-19T16:24:58.179Z,2.40
2018-07-19T16:27:27.355Z,2.72
2018-07-19T16:29:56.476Z,2.42
2018-07-19T16:32:25.863Z,2.75
2018-07-19T16:34:55.188Z,2.77
2018-07-19T16:37:24.399Z,3.02
2018-07-19T16:39:53.870Z,2.40
2018-07-19T16:42:23.005Z,2.60
2018-07-19T16:44:58.079Z,2.65
2018-07-19T16:47:27.036Z,3.20
2018-07-19T16:49:56.308Z,2.20
2018-07-19T16:52:25.440Z,2.25
2018-07-19T16:54:54.718Z,2.77
2018-07-19T16:57:24.051Z,2.50
2018-07-19T16:59:53.183Z,2.60
2018-07-19T17:02:22.463Z,2.77
2018-07-19T17:04:51.638Z,2.40
2018-07-19T17:07:21.037Z,2.50
2018-07-19T17:09:50.188Z,2.45
2018-07-19T17:12:19.321Z,2.00
2018-07-19T17:14:48.484Z,2.20
2018-07-19T17:17:17.745Z,2.55
2018-07-19T17:19:47.223Z,2.52
2018-07-19T17:22:17.323Z,2.25
2018-07-19T17:24:46.564Z,2.45
2018-07-19T17:27:21.669Z,2.72
2018-07-19T17:29:50.988Z,2.60
2018-07-19T17:32:19.881Z,2.60
2018-07-19T17:34:49.038Z,2.80
2018-07-19T17:37:18.039Z,2.50
2018-07-19T17:39:47.216Z,2.47
2018-07-19T17:42:16.583Z,2.55
2018-07-19T17:44:45.776Z,2.47
2018-07-19T17:47:14.969Z,2.47
2018-07-19T17:49:43.885Z,2.70
2018-07-19T17:52:13.128Z,2.50
2018-07-19T17:54:42.397Z,2.50
2018-07-19T17:57:11.628Z,2.77
2018-07-19T17:59:40.888Z,2.30
2018-07-19T18:02:10.501Z,2.30
2018-07-19T18:04:39.553Z,2.60
2018-07-19T18:07:08.756Z,2.77
2018-07-19T18:09:38.186Z,2.35
2018-07-19T18:12:07.626Z,2.75
2018-07-19T18:14:36.803Z,2.70
2018-07-19T18:17:06.250Z,2.37
2018-07-19T18:19:35.157Z,2.30
2018-07-19T18:22:04.404Z,2.40
2018-07-19T18:24:33.603Z,2.65
2018-07-19T18:27:02.693Z,2.45
2018-07-19T18:29:31.921Z,2.45
2018-07-19T18:32:01.411Z,2.50
2018-07-19T18:34:30.647Z,3.15
2018-07-19T18:36:59.887Z,2.03
2018-07-19T18:39:29.208Z,2.50
2018-07-19T18:41:58.515Z,2.40
2018-07-19T18:44:27.403Z,2.63
2018-07-19T18:46:56.738Z,2.87
2018-07-19T18:49:25.887Z,2.30
2018-07-19T18:51:54.882Z,2.40
2018-07-19T18:54:23.560Z,2.70
2018-07-19T18:56:52.711Z,2.33
2018-07-19T18:59:22.812Z,2.07
2018-07-19T19:01:52.241Z,2.73
2018-07-19T19:04:21.562Z,2.83
2018-07-19T19:06:50.708Z,2.83
2018-07-19T19:09:19.760Z,2.60
2018-07-19T19:11:48.817Z,2.53
2018-07-19T19:14:18.063Z,2.30
2018-07-19T19:16:47.231Z,2.40
2018-07-19T19:19:16.658Z,2.60
2018-07-19T19:21:45.936Z,2.30
2018-07-19T19:24:14.757Z,2.43
2018-07-19T19:26:43.967Z,3.33
2018-07-19T19:29:13.086Z,2.70
2018-07-19T19:31:42.340Z,2.10
2018-07-19T19:34:11.965Z,2.30
2018-07-19T19:36:41.165Z,2.37
2018-07-19T19:39:12.731Z,2.63
2018-07-19T19:41:42.388Z,2.30
2018-07-19T19:44:12.101Z,2.30
2018-07-19T19:46:40.792Z,2.10
2018-07-19T19:49:10.060Z,1.80
2018-07-19T19:51:39.253Z,2.20
2018-07-19T19:54:08.416Z,2.00
2018-07-19T19:56:37.544Z,2.27
2018-07-19T19:59:06.666Z,2.37
2018-07-19T20:01:35.950Z,2.27
2018-07-19T20:04:05.113Z,1.97
2018-07-19T20:06:34.553Z,1.80
2018-07-19T20:09:06.472Z,2.30
2018-07-19T20:11:35.769Z,1.67
2018-07-19T20:14:05.164Z,2.13
2018-07-19T20:16:34.382Z,2.20
2018-07-19T20:19:03.336Z,2.67
2018-07-19T20:21:32.421Z,2.33
2018-07-19T20:24:01.697Z,2.50
2018-07-19T20:26:30.902Z,2.50
2018-07-19T20:29:01.032Z,2.50
2018-07-19T20:31:30.169Z,2.37
2018-07-19T20:33:59.070Z,2.50
2018-07-19T20:36:28.061Z,2.30
2018-07-19T20:38:57.591Z,2.27
2018-07-19T20:41:26.763Z,2.33
2018-07-19T20:43:55.933Z,3.00
2018-07-19T20:46:25.196Z,2.50
2018-07-19T20:48:54.320Z,2.60
2018-07-19T20:51:23.192Z,2.60
2018-07-19T20:53:51.893Z,2.43
2018-07-19T20:56:20.890Z,2.57
2018-07-19T20:58:49.873Z,2.87
2018-07-19T21:01:19.026Z,2.90
2018-07-19T21:03:48.146Z,2.60
2018-07-19T21:06:17.475Z,2.40
2018-07-19T21:08:46.603Z,2.17
2018-07-19T21:11:15.832Z,3.30
2018-07-19T21:13:44.969Z,3.07
2018-07-19T21:16:14.118Z,2.53
2018-07-19T21:18:42.894Z,2.80
2018-07-19T21:21:11.940Z,2.90
2018-07-19T21:23:41.208Z,2.90
2018-07-19T21:26:10.611Z,3.30
2018-07-19T21:28:39.737Z,3.50
2018-07-19T21:31:08.863Z,2.70
2018-07-19T21:33:38.136Z,3.57
2018-07-19T21:36:07.176Z,3.20
2018-07-19T21:38:36.366Z,2.97
2018-07-19T21:41:06.451Z,2.87
2018-07-19T21:43:35.778Z,2.20
2018-07-19T21:46:04.670Z,2.60
2018-07-19T21:48:34.088Z,2.77
2018-07-19T21:51:03.129Z,2.60
2018-07-19T21:53:31.962Z,3.07
2018-07-19T21:56:01.142Z,3.33
2018-07-19T21:58:29.990Z,3.47
2018-07-19T22:01:04.290Z,3.33
2018-07-19T22:03:33.520Z,3.00
2018-07-19T22:06:02.401Z,3.80
2018-07-19T22:08:31.767Z,3.33
2018-07-19T22:11:01.025Z,3.27
2018-07-19T22:13:30.821Z,3.30
2018-07-19T22:16:00.383Z,3.20
2018-07-19T22:18:29.685Z,3.00
2018-07-19T22:20:58.579Z,3.10
2018-07-19T22:23:27.790Z,3.67
2018-07-19T22:25:56.968Z,3.60
2018-07-19T22:28:25.796Z,3.40
2018-07-19T22:30:54.934Z,3.90
2018-07-19T22:33:24.032Z,3.60
2018-07-19T22:35:53.258Z,3.50
2018-07-19T22:38:22.596Z,3.30
2018-07-19T22:40:51.432Z,3.90
2018-07-19T22:43:20.763Z,3.30
2018-07-19T22:45:49.868Z,2.93
2018-07-19T22:48:18.984Z,3.87
2018-07-19T22:50:47.849Z,2.80
2018-07-19T22:53:16.942Z,4.20
2018-07-19T22:55:46.032Z,3.60
2018-07-19T22:58:15.386Z,3.77
2018-07-19T23:00:44.533Z,2.87
2018-07-19T23:03:13.862Z,3.53
2018-07-19T23:05:43.069Z,3.00
2018-07-19T23:08:12.180Z,3.73
2018-07-19T23:10:41.546Z,3.73
2018-07-19T23:13:10.751Z,3.30
2018-07-19T23:15:39.989Z,3.30
2018-07-19T23:18:09.054Z,3.40
2018-07-19T23:20:38.170Z,3.27
2018-07-19T23:23:07.051Z,3.97
2018-07-19T23:25:36.024Z,3.60
2018-07-19T23:28:05.216Z,4.03
2018-07-19T23:30:36.086Z,3.80
2018-07-19T23:33:05.577Z,3.70
2018-07-19T23:35:42.560Z,3.90
2018-07-19T23:38:16.588Z,3.80
2018-07-19T23:40:47.721Z,3.50
2018-07-19T23:43:20.037Z,3.40
2018-07-19T23:45:58.415Z,4.53
2018-07-19T23:48:27.560Z,3.50
2018-07-19T23:50:57.046Z,3.67
2018-07-19T23:53:26.625Z,3.57
2018-07-19T23:55:55.768Z,3.50
2018-07-19T23:58:25.063Z,4.30
